sensor_id;sensor_type;location;lat;lon;timestamp;P1;durP1;ratioP1;P2;durP2;ratioP2
4317;SDS011;2172;53.576;9.934;2023-03-24T00:02:04;9.10;;;6.50;;
4317;SDS011;2172;53.576;9.934;2023-03-24T00:04:32;13.90;;;6.67;;
4317;SDS011;2172;53.576;9.934;2023-03-24T00:07:00;10.40;;;6.90;;
4317;SDS011;2172;53.576;9.934;2023-03-24T00:09:28;8.20;;;6.40;;
4317;SDS011;2172;53.576;9.934;2023-03-24T00:11:56;8.33;;;4.87;;
4317;SDS011;2172;53.576;9.934;2023-03-24T00:14:25;7.60;;;5.00;;
4317;SDS011;2172;53.576;9.934;2023-03-24T00:16:55;9.50;;;4.90;;
4317;SDS011;2172;53.576;9.934;2023-03-24T00:19:24;10.07;;;5.23;;
4317;SDS011;2172;53.576;9.934;2023-03-24T00:21:51;10.57;;;5.57;;
4317;SDS011;2172;53.576;9.934;2023-03-24T00:24:20;8.17;;;5.00;;
4317;SDS011;2172;53.576;9.934;2023-03-24T00:26:48;7.73;;;4.63;;
4317;SDS011;2172;53.576;9.934;2023-03-24T00:29:16;8.97;;;4.20;;
4317;SDS011;2172;53.576;9.934;2023-03-24T00:31:45;7.57;;;5.00;;
4317;SDS011;2172;53.576;9.934;2023-03-24T00:34:13;5.07;;;4.53;;
4317;SDS011;2172;53.576;9.934;2023-03-24T00:36:42;9.10;;;5.03;;
4317;SDS011;2172;53.576;9.934;2023-03-24T00:39:10;9.00;;;4.23;;
4317;SDS011;2172;53.576;9.934;2023-03-24T00:41:38;6.90;;;4.50;;
4317;SDS011;2172;53.576;9.934;2023-03-24T00:44:09;5.03;;;4.00;;
4317;SDS011;2172;53.576;9.934;2023-03-24T00:46:42;7.97;;;4.60;;
4317;SDS011;2172;53.576;9.934;2023-03-24T00:49:12;7.20;;;4.00;;
4317;SDS011;2172;53.576;9.934;2023-03-24T00:51:40;5.30;;;4.13;;
4317;SDS011;2172;53.576;9.934;2023-03-24T00:54:10;5.50;;;4.23;;
4317;SDS011;2172;53.576;9.934;2023-03-24T00:56:38;9.93;;;5.00;;
4317;SDS011;2172;53.576;9.934;2023-03-24T00:59:08;12.23;;;5.47;;
4317;SDS011;2172;53.576;9.934;2023-03-24T01:01:38;6.67;;;4.83;;
4317;SDS011;2172;53.576;9.934;2023-03-24T01:04:07;7.70;;;4.50;;
4317;SDS011;2172;53.576;9.934;2023-03-24T01:06:37;9.57;;;4.93;;
4317;SDS011;2172;53.576;9.934;2023-03-24T01:09:05;8.17;;;4.73;;
4317;SDS011;2172;53.576;9.934;2023-03-24T01:11:35;7.83;;;4.70;;
4317;SDS011;2172;53.576;9.934;2023-03-24T01:14:06;6.63;;;4.80;;
4317;SDS011;2172;53.576;9.934;2023-03-24T01:16:34;7.60;;;5.20;;
4317;SDS011;2172;53.576;9.934;2023-03-24T01:19:02;6.00;;;5.07;;
4317;SDS011;2172;53.576;9.934;2023-03-24T01:21:30;7.37;;;4.90;;
4317;SDS011;2172;53.576;9.934;2023-03-24T01:24:01;6.70;;;5.03;;
4317;SDS011;2172;53.576;9.934;2023-03-24T01:26:29;8.40;;;5.80;;
4317;SDS011;2172;53.576;9.934;2023-03-24T01:28:57;7.50;;;4.67;;
4317;SDS011;2172;53.576;9.934;2023-03-24T01:31:24;10.93;;;5.63;;
4317;SDS011;2172;53.576;9.934;2023-03-24T01:33:52;5.97;;;4.87;;
4317;SDS011;2172;53.576;9.934;2023-03-24T01:36:20;9.00;;;5.23;;
4317;SDS011;2172;53.576;9.934;2023-03-24T01:38:47;7.63;;;4.43;;
4317;SDS011;2172;53.576;9.934;2023-03-24T01:41:16;8.67;;;5.13;;
4317;SDS011;2172;53.576;9.934;2023-03-24T01:43:44;6.53;;;5.03;;
4317;SDS011;2172;53.576;9.934;2023-03-24T01:46:13;7.13;;;5.17;;
4317;SDS011;2172;53.576;9.934;2023-03-24T01:48:44;9.87;;;5.00;;
4317;SDS011;2172;53.576;9.934;2023-03-24T01:51:17;7.53;;;4.80;;
4317;SDS011;2172;53.576;9.934;2023-03-24T01:53:50;9.97;;;5.10;;
4317;SDS011;2172;53.576;9.934;2023-03-24T01:56:21;7.53;;;4.60;;
4317;SDS011;2172;53.576;9.934;2023-03-24T01:58:51;5.83;;;4.90;;
4317;SDS011;2172;53.576;9.934;2023-03-24T02:01:32;6.57;;;4.63;;
4317;SDS011;2172;53.576;9.934;2023-03-24T02:04:16;12.53;;;5.87;;
4317;SDS011;2172;53.576;9.934;2023-03-24T02:06:44;7.50;;;4.97;;
4317;SDS011;2172;53.576;9.934;2023-03-24T02:09:13;6.20;;;4.63;;
4317;SDS011;2172;53.576;9.934;2023-03-24T02:11:42;8.50;;;5.30;;
4317;SDS011;2172;53.576;9.934;2023-03-24T02:14:10;9.20;;;4.90;;
4317;SDS011;2172;53.576;9.934;2023-03-24T02:16:48;6.70;;;4.80;;
4317;SDS011;2172;53.576;9.934;2023-03-24T02:19:34;8.80;;;5.03;;
4317;SDS011;2172;53.576;9.934;2023-03-24T02:29:00;7.90;;;5.00;;
4317;SDS011;2172;53.576;9.934;2023-03-24T02:31:42;7.23;;;5.33;;
4317;SDS011;2172;53.576;9.934;2023-03-24T02:34:31;10.80;;;6.20;;
4317;SDS011;2172;53.576;9.934;2023-03-24T02:37:27;6.50;;;4.90;;
4317;SDS011;2172;53.576;9.934;2023-03-24T02:40:18;8.70;;;5.20;;
4317;SDS011;2172;53.576;9.934;2023-03-24T02:42:58;8.13;;;5.77;;
4317;SDS011;2172;53.576;9.934;2023-03-24T02:45:33;7.80;;;5.37;;
4317;SDS011;2172;53.576;9.934;2023-03-24T02:48:21;9.17;;;5.57;;
4317;SDS011;2172;53.576;9.934;2023-03-24T02:50:53;7.60;;;5.43;;
4317;SDS011;2172;53.576;9.934;2023-03-24T02:53:26;9.63;;;5.40;;
4317;SDS011;2172;53.576;9.934;2023-03-24T02:56:22;6.47;;;5.83;;
4317;SDS011;2172;53.576;9.934;2023-03-24T02:59:02;8.33;;;6.40;;
4317;SDS011;2172;53.576;9.934;2023-03-24T03:01:36;6.70;;;5.40;;
4317;SDS011;2172;53.576;9.934;2023-03-24T03:04:23;7.73;;;6.30;;
4317;SDS011;2172;53.576;9.934;2023-03-24T03:06:54;7.73;;;6.10;;
4317;SDS011;2172;53.576;9.934;2023-03-24T03:09:24;7.03;;;5.53;;
4317;SDS011;2172;53.576;9.934;2023-03-24T03:11:56;8.90;;;5.73;;
4317;SDS011;2172;53.576;9.934;2023-03-24T03:14:25;8.20;;;5.97;;
4317;SDS011;2172;53.576;9.934;2023-03-24T03:16:57;8.13;;;6.27;;
4317;SDS011;2172;53.576;9.934;2023-03-24T03:19:30;8.53;;;7.17;;
4317;SDS011;2172;53.576;9.934;2023-03-24T03:21:59;9.10;;;6.17;;
4317;SDS011;2172;53.576;9.934;2023-03-24T03:24:29;8.23;;;5.67;;
4317;SDS011;2172;53.576;9.934;2023-03-24T03:27:04;8.53;;;6.00;;
4317;SDS011;2172;53.576;9.934;2023-03-24T03:29:35;9.50;;;7.47;;
4317;SDS011;2172;53.576;9.934;2023-03-24T03:32:04;9.20;;;6.40;;
4317;SDS011;2172;53.576;9.934;2023-03-24T03:34:36;9.77;;;6.10;;
4317;SDS011;2172;53.576;9.934;2023-03-24T03:37:07;8.83;;;6.70;;
4317;SDS011;2172;53.576;9.934;2023-03-24T03:39:39;8.33;;;6.80;;
4317;SDS011;2172;53.576;9.934;2023-03-24T03:42:13;8.87;;;6.10;;
4317;SDS011;2172;53.576;9.934;2023-03-24T03:44:41;8.33;;;6.70;;
4317;SDS011;2172;53.576;9.934;2023-03-24T03:47:08;8.43;;;6.13;;
4317;SDS011;2172;53.576;9.934;2023-03-24T03:49:42;9.83;;;6.70;;
4317;SDS011;2172;53.576;9.934;2023-03-24T03:52:11;9.13;;;6.50;;
4317;SDS011;2172;53.576;9.934;2023-03-24T03:54:38;9.10;;;7.13;;
4317;SDS011;2172;53.576;9.934;2023-03-24T03:57:08;12.20;;;7.43;;
4317;SDS011;2172;53.576;9.934;2023-03-24T03:59:56;10.70;;;6.90;;
4317;SDS011;2172;53.576;9.934;2023-03-24T04:02:41;8.37;;;6.40;;
4317;SDS011;2172;53.576;9.934;2023-03-24T04:05:23;7.63;;;6.60;;
4317;SDS011;2172;53.576;9.934;2023-03-24T04:08:03;9.37;;;6.27;;
4317;SDS011;2172;53.576;9.934;2023-03-24T04:14:09;9.03;;;6.37;;
4317;SDS011;2172;53.576;9.934;2023-03-24T04:17:15;9.10;;;6.07;;
4317;SDS011;2172;53.576;9.934;2023-03-24T04:19:55;8.33;;;7.07;;
4317;SDS011;2172;53.576;9.934;2023-03-24T04:22:35;7.47;;;6.77;;
4317;SDS011;2172;53.576;9.934;2023-03-24T04:25:19;8.43;;;6.03;;
4317;SDS011;2172;53.576;9.934;2023-03-24T04:27:55;6.57;;;5.87;;
4317;SDS011;2172;53.576;9.934;2023-03-24T04:30:28;6.90;;;6.20;;
4317;SDS011;2172;53.576;9.934;2023-03-24T04:33:00;7.50;;;5.80;;
4317;SDS011;2172;53.576;9.934;2023-03-24T04:35:34;7.33;;;6.63;;
4317;SDS011;2172;53.576;9.934;2023-03-24T04:38:08;9.70;;;6.90;;
4317;SDS011;2172;53.576;9.934;2023-03-24T04:40:43;9.43;;;6.80;;
4317;SDS011;2172;53.576;9.934;2023-03-24T04:43:14;7.00;;;6.27;;
4317;SDS011;2172;53.576;9.934;2023-03-24T04:45:42;9.00;;;6.73;;
4317;SDS011;2172;53.576;9.934;2023-03-24T04:48:27;12.80;;;6.80;;
4317;SDS011;2172;53.576;9.934;2023-03-24T04:51:21;7.33;;;6.50;;
4317;SDS011;2172;53.576;9.934;2023-03-24T04:54:07;6.80;;;6.20;;
4317;SDS011;2172;53.576;9.934;2023-03-24T04:56:42;8.53;;;7.57;;
4317;SDS011;2172;53.576;9.934;2023-03-24T04:59:19;10.30;;;8.80;;
4317;SDS011;2172;53.576;9.934;2023-03-24T05:01:47;11.23;;;7.90;;
4317;SDS011;2172;53.576;9.934;2023-03-24T05:04:26;9.40;;;8.00;;
4317;SDS011;2172;53.576;9.934;2023-03-24T05:06:57;8.90;;;8.00;;
4317;SDS011;2172;53.576;9.934;2023-03-24T05:09:26;8.53;;;7.73;;
4317;SDS011;2172;53.576;9.934;2023-03-24T05:11:56;8.93;;;7.90;;
4317;SDS011;2172;53.576;9.934;2023-03-24T05:14:24;8.67;;;7.50;;
4317;SDS011;2172;53.576;9.934;2023-03-24T05:16:51;8.60;;;7.70;;
4317;SDS011;2172;53.576;9.934;2023-03-24T05:19:20;9.43;;;7.70;;
4317;SDS011;2172;53.576;9.934;2023-03-24T05:21:50;6.97;;;6.27;;
4317;SDS011;2172;53.576;9.934;2023-03-24T05:24:18;7.40;;;6.70;;
4317;SDS011;2172;53.576;9.934;2023-03-24T05:26:46;7.70;;;6.90;;
4317;SDS011;2172;53.576;9.934;2023-03-24T05:29:17;8.17;;;7.37;;
4317;SDS011;2172;53.576;9.934;2023-03-24T05:31:44;8.20;;;7.03;;
4317;SDS011;2172;53.576;9.934;2023-03-24T05:34:17;7.17;;;6.03;;
4317;SDS011;2172;53.576;9.934;2023-03-24T05:36:58;7.60;;;6.73;;
4317;SDS011;2172;53.576;9.934;2023-03-24T05:39:25;7.87;;;7.10;;
4317;SDS011;2172;53.576;9.934;2023-03-24T05:42:00;8.87;;;6.23;;
4317;SDS011;2172;53.576;9.934;2023-03-24T05:44:28;6.40;;;5.67;;
4317;SDS011;2172;53.576;9.934;2023-03-24T05:47:10;7.43;;;6.70;;
4317;SDS011;2172;53.576;9.934;2023-03-24T05:49:40;7.43;;;6.50;;
4317;SDS011;2172;53.576;9.934;2023-03-24T05:52:09;7.50;;;6.90;;
4317;SDS011;2172;53.576;9.934;2023-03-24T05:54:41;8.13;;;6.17;;
4317;SDS011;2172;53.576;9.934;2023-03-24T05:57:17;6.17;;;5.57;;
4317;SDS011;2172;53.576;9.934;2023-03-24T06:00:06;6.80;;;6.20;;
4317;SDS011;2172;53.576;9.934;2023-03-24T06:03:02;8.23;;;6.20;;
4317;SDS011;2172;53.576;9.934;2023-03-24T06:05:36;7.53;;;6.10;;
4317;SDS011;2172;53.576;9.934;2023-03-24T06:08:05;7.37;;;6.67;;
4317;SDS011;2172;53.576;9.934;2023-03-24T06:10:35;7.00;;;6.33;;
4317;SDS011;2172;53.576;9.934;2023-03-24T06:13:03;6.80;;;6.10;;
4317;SDS011;2172;53.576;9.934;2023-03-24T06:15:33;6.23;;;5.73;;
4317;SDS011;2172;53.576;9.934;2023-03-24T06:18:23;7.30;;;6.60;;
4317;SDS011;2172;53.576;9.934;2023-03-24T06:20:52;9.10;;;6.57;;
4317;SDS011;2172;53.576;9.934;2023-03-24T06:23:28;6.80;;;6.10;;
4317;SDS011;2172;53.576;9.934;2023-03-24T06:26:08;6.87;;;6.27;;
4317;SDS011;2172;53.576;9.934;2023-03-24T06:28:50;8.53;;;7.67;;
4317;SDS011;2172;53.576;9.934;2023-03-24T06:31:20;6.10;;;5.50;;
4317;SDS011;2172;53.576;9.934;2023-03-24T06:33:50;6.07;;;5.40;;
4317;SDS011;2172;53.576;9.934;2023-03-24T06:36:18;6.77;;;5.87;;
4317;SDS011;2172;53.576;9.934;2023-03-24T06:38:49;5.87;;;5.27;;
4317;SDS011;2172;53.576;9.934;2023-03-24T06:41:19;6.87;;;6.17;;
4317;SDS011;2172;53.576;9.934;2023-03-24T06:43:51;6.00;;;5.50;;
4317;SDS011;2172;53.576;9.934;2023-03-24T06:46:19;6.10;;;5.50;;
4317;SDS011;2172;53.576;9.934;2023-03-24T06:48:47;5.40;;;5.00;;
4317;SDS011;2172;53.576;9.934;2023-03-24T06:51:15;6.80;;;5.77;;
4317;SDS011;2172;53.576;9.934;2023-03-24T06:53:43;7.77;;;5.97;;
4317;SDS011;2172;53.576;9.934;2023-03-24T06:56:13;5.97;;;5.43;;
4317;SDS011;2172;53.576;9.934;2023-03-24T06:58:49;6.33;;;5.73;;
4317;SDS011;2172;53.576;9.934;2023-03-24T07:01:24;6.27;;;5.77;;
4317;SDS011;2172;53.576;9.934;2023-03-24T07:03:52;7.90;;;5.60;;
4317;SDS011;2172;53.576;9.934;2023-03-24T07:06:39;7.00;;;6.30;;
4317;SDS011;2172;53.576;9.934;2023-03-24T07:09:12;6.80;;;6.00;;
4317;SDS011;2172;53.576;9.934;2023-03-24T07:11:41;4.10;;;3.73;;
4317;SDS011;2172;53.576;9.934;2023-03-24T07:14:08;8.23;;;6.70;;
4317;SDS011;2172;53.576;9.934;2023-03-24T07:16:36;6.17;;;4.77;;
4317;SDS011;2172;53.576;9.934;2023-03-24T07:19:36;5.70;;;4.53;;
4317;SDS011;2172;53.576;9.934;2023-03-24T07:22:22;5.43;;;4.63;;
4317;SDS011;2172;53.576;9.934;2023-03-24T07:25:08;7.50;;;3.63;;
4317;SDS011;2172;53.576;9.934;2023-03-24T07:27:53;4.43;;;4.03;;
4317;SDS011;2172;53.576;9.934;2023-03-24T07:30:21;3.90;;;3.57;;
4317;SDS011;2172;53.576;9.934;2023-03-24T07:32:49;4.23;;;3.83;;
4317;SDS011;2172;53.576;9.934;2023-03-24T07:35:19;3.90;;;3.60;;
4317;SDS011;2172;53.576;9.934;2023-03-24T07:37:47;3.90;;;3.50;;
4317;SDS011;2172;53.576;9.934;2023-03-24T07:40:15;3.13;;;2.27;;
4317;SDS011;2172;53.576;9.934;2023-03-24T07:42:43;4.00;;;2.53;;
4317;SDS011;2172;53.576;9.934;2023-03-24T07:45:45;8.73;;;2.93;;
4317;SDS011;2172;53.576;9.934;2023-03-24T07:48:12;2.87;;;2.57;;
4317;SDS011;2172;53.576;9.934;2023-03-24T07:50:40;3.00;;;2.00;;
4317;SDS011;2172;53.576;9.934;2023-03-24T07:53:28;4.43;;;1.60;;
4317;SDS011;2172;53.576;9.934;2023-03-24T07:55:56;5.10;;;2.30;;
4317;SDS011;2172;53.576;9.934;2023-03-24T07:58:24;6.40;;;2.67;;
4317;SDS011;2172;53.576;9.934;2023-03-24T08:01:09;3.60;;;2.10;;
4317;SDS011;2172;53.576;9.934;2023-03-24T08:03:41;4.50;;;2.40;;
4317;SDS011;2172;53.576;9.934;2023-03-24T08:06:23;7.60;;;2.80;;
4317;SDS011;2172;53.576;9.934;2023-03-24T08:08:54;6.10;;;1.90;;
4317;SDS011;2172;53.576;9.934;2023-03-24T08:11:22;4.67;;;2.47;;
4317;SDS011;2172;53.576;9.934;2023-03-24T08:13:49;4.63;;;2.40;;
4317;SDS011;2172;53.576;9.934;2023-03-24T08:16:18;5.40;;;1.80;;
4317;SDS011;2172;53.576;9.934;2023-03-24T08:18:46;4.20;;;1.83;;
4317;SDS011;2172;53.576;9.934;2023-03-24T08:21:15;8.70;;;2.50;;
4317;SDS011;2172;53.576;9.934;2023-03-24T08:23:42;5.93;;;1.67;;
4317;SDS011;2172;53.576;9.934;2023-03-24T08:26:10;6.17;;;2.40;;
4317;SDS011;2172;53.576;9.934;2023-03-24T08:28:37;5.17;;;2.43;;
4317;SDS011;2172;53.576;9.934;2023-03-24T08:31:06;5.00;;;2.07;;
4317;SDS011;2172;53.576;9.934;2023-03-24T08:33:34;7.40;;;3.50;;
4317;SDS011;2172;53.576;9.934;2023-03-24T08:36:02;4.37;;;2.20;;
4317;SDS011;2172;53.576;9.934;2023-03-24T08:38:30;8.27;;;1.83;;
4317;SDS011;2172;53.576;9.934;2023-03-24T08:40:59;5.77;;;2.33;;
4317;SDS011;2172;53.576;9.934;2023-03-24T08:43:31;5.80;;;1.73;;
4317;SDS011;2172;53.576;9.934;2023-03-24T08:46:00;5.83;;;2.00;;
4317;SDS011;2172;53.576;9.934;2023-03-24T08:48:28;10.57;;;3.00;;
4317;SDS011;2172;53.576;9.934;2023-03-24T08:50:58;5.03;;;1.90;;
4317;SDS011;2172;53.576;9.934;2023-03-24T08:53:25;5.23;;;2.23;;
4317;SDS011;2172;53.576;9.934;2023-03-24T08:55:53;3.30;;;1.80;;
4317;SDS011;2172;53.576;9.934;2023-03-24T08:58:20;3.07;;;1.70;;
4317;SDS011;2172;53.576;9.934;2023-03-24T09:00:48;5.70;;;2.50;;
4317;SDS011;2172;53.576;9.934;2023-03-24T09:03:17;6.83;;;2.53;;
4317;SDS011;2172;53.576;9.934;2023-03-24T09:05:46;4.43;;;2.17;;
4317;SDS011;2172;53.576;9.934;2023-03-24T09:08:16;11.10;;;3.60;;
4317;SDS011;2172;53.576;9.934;2023-03-24T09:10:44;6.73;;;2.53;;
4317;SDS011;2172;53.576;9.934;2023-03-24T09:13:12;7.73;;;2.60;;
4317;SDS011;2172;53.576;9.934;2023-03-24T09:15:44;5.20;;;2.37;;
4317;SDS011;2172;53.576;9.934;2023-03-24T09:18:12;4.60;;;1.80;;
4317;SDS011;2172;53.576;9.934;2023-03-24T09:20:40;5.63;;;1.97;;
4317;SDS011;2172;53.576;9.934;2023-03-24T09:23:08;6.87;;;2.13;;
4317;SDS011;2172;53.576;9.934;2023-03-24T09:25:37;5.77;;;2.27;;
4317;SDS011;2172;53.576;9.934;2023-03-24T09:28:05;5.60;;;2.43;;
4317;SDS011;2172;53.576;9.934;2023-03-24T09:30:32;4.50;;;2.50;;
4317;SDS011;2172;53.576;9.934;2023-03-24T09:33:00;8.77;;;2.03;;
4317;SDS011;2172;53.576;9.934;2023-03-24T09:35:27;5.57;;;2.20;;
4317;SDS011;2172;53.576;9.934;2023-03-24T09:37:55;7.70;;;1.90;;
4317;SDS011;2172;53.576;9.934;2023-03-24T09:40:23;5.67;;;2.53;;
4317;SDS011;2172;53.576;9.934;2023-03-24T09:42:55;7.17;;;2.50;;
4317;SDS011;2172;53.576;9.934;2023-03-24T09:45:27;13.03;;;3.17;;
4317;SDS011;2172;53.576;9.934;2023-03-24T09:47:58;5.47;;;1.70;;
4317;SDS011;2172;53.576;9.934;2023-03-24T09:50:32;6.17;;;2.10;;
4317;SDS011;2172;53.576;9.934;2023-03-24T09:53:02;5.10;;;2.63;;
4317;SDS011;2172;53.576;9.934;2023-03-24T09:55:32;6.90;;;2.63;;
4317;SDS011;2172;53.576;9.934;2023-03-24T09:58:06;4.87;;;2.17;;
4317;SDS011;2172;53.576;9.934;2023-03-24T10:00:36;8.13;;;2.00;;
4317;SDS011;2172;53.576;9.934;2023-03-24T10:03:10;6.70;;;2.83;;
4317;SDS011;2172;53.576;9.934;2023-03-24T10:05:41;5.33;;;2.67;;
4317;SDS011;2172;53.576;9.934;2023-03-24T10:08:13;4.30;;;2.30;;
4317;SDS011;2172;53.576;9.934;2023-03-24T10:10:45;5.63;;;2.60;;
4317;SDS011;2172;53.576;9.934;2023-03-24T10:13:23;6.33;;;2.40;;
4317;SDS011;2172;53.576;9.934;2023-03-24T10:15:57;5.33;;;3.03;;
4317;SDS011;2172;53.576;9.934;2023-03-24T10:18:29;8.57;;;3.20;;
4317;SDS011;2172;53.576;9.934;2023-03-24T10:21:02;8.67;;;2.53;;
4317;SDS011;2172;53.576;9.934;2023-03-24T10:23:33;6.07;;;2.43;;
4317;SDS011;2172;53.576;9.934;2023-03-24T10:26:04;10.27;;;2.70;;
4317;SDS011;2172;53.576;9.934;2023-03-24T10:28:40;5.30;;;1.97;;
4317;SDS011;2172;53.576;9.934;2023-03-24T10:31:13;6.57;;;1.93;;
4317;SDS011;2172;53.576;9.934;2023-03-24T10:33:42;12.60;;;2.50;;
4317;SDS011;2172;53.576;9.934;2023-03-24T10:36:11;10.37;;;2.67;;
4317;SDS011;2172;53.576;9.934;2023-03-24T10:38:39;5.50;;;2.17;;
4317;SDS011;2172;53.576;9.934;2023-03-24T10:41:09;5.40;;;2.40;;
4317;SDS011;2172;53.576;9.934;2023-03-24T10:43:41;8.70;;;2.37;;
4317;SDS011;2172;53.576;9.934;2023-03-24T10:46:10;5.70;;;2.33;;
4317;SDS011;2172;53.576;9.934;2023-03-24T10:48:40;4.77;;;2.10;;
4317;SDS011;2172;53.576;9.934;2023-03-24T10:51:15;3.07;;;1.50;;
4317;SDS011;2172;53.576;9.934;2023-03-24T10:53:45;4.93;;;2.07;;
4317;SDS011;2172;53.576;9.934;2023-03-24T10:56:16;10.13;;;2.33;;
4317;SDS011;2172;53.576;9.934;2023-03-24T10:58:46;7.20;;;2.30;;
4317;SDS011;2172;53.576;9.934;2023-03-24T11:01:19;6.57;;;2.17;;
4317;SDS011;2172;53.576;9.934;2023-03-24T11:03:50;5.70;;;2.20;;
4317;SDS011;2172;53.576;9.934;2023-03-24T11:06:19;5.37;;;2.30;;
4317;SDS011;2172;53.576;9.934;2023-03-24T11:08:47;8.17;;;2.40;;
4317;SDS011;2172;53.576;9.934;2023-03-24T11:11:36;6.00;;;2.90;;
4317;SDS011;2172;53.576;9.934;2023-03-24T11:14:08;10.50;;;2.37;;
4317;SDS011;2172;53.576;9.934;2023-03-24T11:16:47;7.20;;;2.30;;
4317;SDS011;2172;53.576;9.934;2023-03-24T11:19:19;6.23;;;2.83;;
4317;SDS011;2172;53.576;9.934;2023-03-24T11:21:47;5.73;;;2.10;;
4317;SDS011;2172;53.576;9.934;2023-03-24T11:24:17;8.73;;;2.53;;
4317;SDS011;2172;53.576;9.934;2023-03-24T11:26:45;6.30;;;2.13;;
4317;SDS011;2172;53.576;9.934;2023-03-24T11:29:20;9.00;;;3.17;;
4317;SDS011;2172;53.576;9.934;2023-03-24T11:31:50;7.70;;;2.33;;
4317;SDS011;2172;53.576;9.934;2023-03-24T11:34:19;4.80;;;2.00;;
4317;SDS011;2172;53.576;9.934;2023-03-24T11:36:49;8.17;;;2.30;;
4317;SDS011;2172;53.576;9.934;2023-03-24T11:39:19;5.73;;;1.90;;
4317;SDS011;2172;53.576;9.934;2023-03-24T11:41:58;8.90;;;2.60;;
4317;SDS011;2172;53.576;9.934;2023-03-24T11:44:46;5.10;;;2.37;;
4317;SDS011;2172;53.576;9.934;2023-03-24T11:47:20;4.73;;;2.37;;
4317;SDS011;2172;53.576;9.934;2023-03-24T11:49:51;5.20;;;2.10;;
4317;SDS011;2172;53.576;9.934;2023-03-24T11:52:23;10.10;;;2.40;;
4317;SDS011;2172;53.576;9.934;2023-03-24T11:54:53;8.20;;;2.47;;
4317;SDS011;2172;53.576;9.934;2023-03-24T11:57:24;6.13;;;2.00;;
4317;SDS011;2172;53.576;9.934;2023-03-24T12:00:00;7.87;;;2.70;;
4317;SDS011;2172;53.576;9.934;2023-03-24T12:02:40;8.33;;;3.00;;
4317;SDS011;2172;53.576;9.934;2023-03-24T12:05:19;7.83;;;3.20;;
4317;SDS011;2172;53.576;9.934;2023-03-24T12:11:06;7.77;;;2.70;;
4317;SDS011;2172;53.576;9.934;2023-03-24T12:13:38;10.67;;;3.17;;
4317;SDS011;2172;53.576;9.934;2023-03-24T12:16:14;6.83;;;2.83;;
4317;SDS011;2172;53.576;9.934;2023-03-24T12:22:17;7.00;;;3.13;;
4317;SDS011;2172;53.576;9.934;2023-03-24T12:25:03;9.37;;;3.00;;
4317;SDS011;2172;53.576;9.934;2023-03-24T12:27:48;12.57;;;2.60;;
4317;SDS011;2172;53.576;9.934;2023-03-24T12:30:21;7.13;;;3.10;;
4317;SDS011;2172;53.576;9.934;2023-03-24T12:32:58;6.43;;;2.67;;
4317;SDS011;2172;53.576;9.934;2023-03-24T12:35:46;8.40;;;3.00;;
4317;SDS011;2172;53.576;9.934;2023-03-24T12:38:25;7.93;;;2.90;;
4317;SDS011;2172;53.576;9.934;2023-03-24T12:44:00;10.70;;;2.63;;
4317;SDS011;2172;53.576;9.934;2023-03-24T12:46:43;9.87;;;3.10;;
4317;SDS011;2172;53.576;9.934;2023-03-24T12:49:20;8.77;;;3.13;;
4317;SDS011;2172;53.576;9.934;2023-03-24T12:52:20;8.33;;;3.63;;
4317;SDS011;2172;53.576;9.934;2023-03-24T12:55:13;8.37;;;2.87;;
4317;SDS011;2172;53.576;9.934;2023-03-24T12:57:44;7.83;;;3.07;;
4317;SDS011;2172;53.576;9.934;2023-03-24T13:00:14;14.20;;;3.60;;
4317;SDS011;2172;53.576;9.934;2023-03-24T13:02:45;8.80;;;3.47;;
4317;SDS011;2172;53.576;9.934;2023-03-24T13:05:19;5.87;;;2.70;;
4317;SDS011;2172;53.576;9.934;2023-03-24T13:07:48;3.70;;;2.03;;
4317;SDS011;2172;53.576;9.934;2023-03-24T13:10:20;7.97;;;2.43;;
4317;SDS011;2172;53.576;9.934;2023-03-24T13:12:51;9.20;;;2.73;;
4317;SDS011;2172;53.576;9.934;2023-03-24T13:15:21;5.87;;;2.30;;
4317;SDS011;2172;53.576;9.934;2023-03-24T13:17:52;7.53;;;2.57;;
4317;SDS011;2172;53.576;9.934;2023-03-24T13:20:24;5.57;;;2.17;;
4317;SDS011;2172;53.576;9.934;2023-03-24T13:22:54;6.73;;;2.20;;
4317;SDS011;2172;53.576;9.934;2023-03-24T13:25:24;6.40;;;2.27;;
4317;SDS011;2172;53.576;9.934;2023-03-24T13:27:58;4.00;;;1.97;;
4317;SDS011;2172;53.576;9.934;2023-03-24T13:30:32;5.70;;;2.40;;
4317;SDS011;2172;53.576;9.934;2023-03-24T13:33:02;6.80;;;2.20;;
4317;SDS011;2172;53.576;9.934;2023-03-24T13:35:42;5.47;;;2.63;;
4317;SDS011;2172;53.576;9.934;2023-03-24T13:38:22;6.60;;;2.33;;
4317;SDS011;2172;53.576;9.934;2023-03-24T13:40:55;7.40;;;2.20;;
4317;SDS011;2172;53.576;9.934;2023-03-24T13:43:23;5.70;;;2.47;;
4317;SDS011;2172;53.576;9.934;2023-03-24T13:45:57;8.03;;;2.53;;
4317;SDS011;2172;53.576;9.934;2023-03-24T13:48:28;4.93;;;1.93;;
4317;SDS011;2172;53.576;9.934;2023-03-24T13:51:00;7.17;;;2.30;;
4317;SDS011;2172;53.576;9.934;2023-03-24T13:53:31;6.47;;;2.07;;
4317;SDS011;2172;53.576;9.934;2023-03-24T13:56:01;5.93;;;1.90;;
4317;SDS011;2172;53.576;9.934;2023-03-24T14:04:13;7.00;;;2.50;;
4317;SDS011;2172;53.576;9.934;2023-03-24T14:06:51;5.43;;;2.20;;
4317;SDS011;2172;53.576;9.934;2023-03-24T14:09:20;4.60;;;1.87;;
4317;SDS011;2172;53.576;9.934;2023-03-24T14:17:43;6.10;;;2.90;;
4317;SDS011;2172;53.576;9.934;2023-03-24T14:20:22;9.03;;;2.20;;
4317;SDS011;2172;53.576;9.934;2023-03-24T14:22:56;6.37;;;1.80;;
4317;SDS011;2172;53.576;9.934;2023-03-24T14:25:24;11.00;;;2.60;;
4317;SDS011;2172;53.576;9.934;2023-03-24T14:27:54;5.23;;;1.93;;
4317;SDS011;2172;53.576;9.934;2023-03-24T14:30:33;5.43;;;2.00;;
4317;SDS011;2172;53.576;9.934;2023-03-24T14:33:05;6.90;;;1.80;;
4317;SDS011;2172;53.576;9.934;2023-03-24T14:35:49;6.30;;;2.43;;
4317;SDS011;2172;53.576;9.934;2023-03-24T14:38:27;5.70;;;2.17;;
4317;SDS011;2172;53.576;9.934;2023-03-24T14:40:55;6.97;;;2.33;;
4317;SDS011;2172;53.576;9.934;2023-03-24T14:43:24;3.90;;;1.83;;
4317;SDS011;2172;53.576;9.934;2023-03-24T14:45:54;5.27;;;2.03;;
4317;SDS011;2172;53.576;9.934;2023-03-24T14:48:30;4.30;;;1.77;;
4317;SDS011;2172;53.576;9.934;2023-03-24T14:51:24;5.30;;;2.17;;
4317;SDS011;2172;53.576;9.934;2023-03-24T14:54:04;8.33;;;2.57;;
4317;SDS011;2172;53.576;9.934;2023-03-24T14:56:37;4.50;;;1.70;;
4317;SDS011;2172;53.576;9.934;2023-03-24T14:59:07;4.67;;;1.93;;
4317;SDS011;2172;53.576;9.934;2023-03-24T15:01:36;8.90;;;4.53;;
4317;SDS011;2172;53.576;9.934;2023-03-24T15:04:06;6.60;;;2.60;;
4317;SDS011;2172;53.576;9.934;2023-03-24T15:06:41;7.80;;;3.00;;
4317;SDS011;2172;53.576;9.934;2023-03-24T15:09:13;7.43;;;2.50;;
4317;SDS011;2172;53.576;9.934;2023-03-24T15:11:41;6.77;;;2.00;;
4317;SDS011;2172;53.576;9.934;2023-03-24T15:14:12;4.53;;;2.03;;
4317;SDS011;2172;53.576;9.934;2023-03-24T15:16:55;4.07;;;1.70;;
4317;SDS011;2172;53.576;9.934;2023-03-24T15:19:26;5.93;;;1.63;;
4317;SDS011;2172;53.576;9.934;2023-03-24T15:21:58;5.60;;;2.10;;
4317;SDS011;2172;53.576;9.934;2023-03-24T15:24:30;4.33;;;1.63;;
4317;SDS011;2172;53.576;9.934;2023-03-24T15:29:52;5.30;;;1.87;;
4317;SDS011;2172;53.576;9.934;2023-03-24T15:32:22;6.70;;;2.20;;
4317;SDS011;2172;53.576;9.934;2023-03-24T15:34:52;5.20;;;2.13;;
4317;SDS011;2172;53.576;9.934;2023-03-24T15:37:21;5.80;;;2.30;;
4317;SDS011;2172;53.576;9.934;2023-03-24T15:39:50;3.60;;;1.83;;
4317;SDS011;2172;53.576;9.934;2023-03-24T15:42:19;5.53;;;2.20;;
4317;SDS011;2172;53.576;9.934;2023-03-24T15:44:48;5.83;;;2.43;;
4317;SDS011;2172;53.576;9.934;2023-03-24T15:47:18;5.90;;;1.57;;
4317;SDS011;2172;53.576;9.934;2023-03-24T15:49:51;4.70;;;1.80;;
4317;SDS011;2172;53.576;9.934;2023-03-24T15:52:28;5.03;;;1.90;;
4317;SDS011;2172;53.576;9.934;2023-03-24T15:55:00;4.47;;;2.10;;
4317;SDS011;2172;53.576;9.934;2023-03-24T15:57:36;8.70;;;2.30;;
4317;SDS011;2172;53.576;9.934;2023-03-24T16:00:07;5.70;;;2.60;;
4317;SDS011;2172;53.576;9.934;2023-03-24T16:02:41;3.77;;;1.70;;
4317;SDS011;2172;53.576;9.934;2023-03-24T16:05:14;6.60;;;2.00;;
4317;SDS011;2172;53.576;9.934;2023-03-24T16:07:52;5.57;;;2.00;;
4317;SDS011;2172;53.576;9.934;2023-03-24T16:10:30;6.40;;;2.40;;
4317;SDS011;2172;53.576;9.934;2023-03-24T16:13:10;9.23;;;2.30;;
4317;SDS011;2172;53.576;9.934;2023-03-24T16:15:41;7.80;;;2.00;;
4317;SDS011;2172;53.576;9.934;2023-03-24T16:18:11;4.93;;;2.00;;
4317;SDS011;2172;53.576;9.934;2023-03-24T16:20:59;7.63;;;2.43;;
4317;SDS011;2172;53.576;9.934;2023-03-24T16:23:27;7.10;;;2.43;;
4317;SDS011;2172;53.576;9.934;2023-03-24T16:25:56;6.47;;;3.00;;